sensor_id;sensor_type;location;lat;lon;timestamp;P1;durP1;ratioP1;P2;durP2;ratioP2
5791;SDS011;2922;53.482;10.006;2023-07-28T00:00:32;7.03;;;4.97;;
5791;SDS011;2922;53.482;10.006;2023-07-28T00:02:58;5.90;;;4.83;;
5791;SDS011;2922;53.482;10.006;2023-07-28T00:05:23;5.30;;;4.57;;
5791;SDS011;2922;53.482;10.006;2023-07-28T00:07:49;4.83;;;4.07;;
5791;SDS011;2922;53.482;10.006;2023-07-28T00:10:14;6.93;;;4.70;;
5791;SDS011;2922;53.482;10.006;2023-07-28T00:12:40;5.60;;;4.30;;
5791;SDS011;2922;53.482;10.006;2023-07-28T00:15:06;5.80;;;4.30;;
5791;SDS011;2922;53.482;10.006;2023-07-28T00:17:31;6.90;;;4.37;;
5791;SDS011;2922;53.482;10.006;2023-07-28T00:19:57;5.20;;;4.37;;
5791;SDS011;2922;53.482;10.006;2023-07-28T00:22:22;6.13;;;4.17;;
5791;SDS011;2922;53.482;10.006;2023-07-28T00:24:48;5.37;;;4.53;;
5791;SDS011;2922;53.482;10.006;2023-07-28T00:27:13;6.70;;;4.37;;
5791;SDS011;2922;53.482;10.006;2023-07-28T00:29:40;5.73;;;4.23;;
5791;SDS011;2922;53.482;10.006;2023-07-28T00:32:06;5.70;;;4.60;;
5791;SDS011;2922;53.482;10.006;2023-07-28T00:34:32;5.97;;;4.90;;
5791;SDS011;2922;53.482;10.006;2023-07-28T00:36:58;5.90;;;4.10;;
5791;SDS011;2922;53.482;10.006;2023-07-28T00:39:23;4.80;;;4.30;;
5791;SDS011;2922;53.482;10.006;2023-07-28T00:41:49;5.37;;;4.40;;
5791;SDS011;2922;53.482;10.006;2023-07-28T00:44:14;4.90;;;4.20;;
5791;SDS011;2922;53.482;10.006;2023-07-28T00:46:41;5.10;;;4.10;;
5791;SDS011;2922;53.482;10.006;2023-07-28T00:49:07;5.63;;;4.20;;
5791;SDS011;2922;53.482;10.006;2023-07-28T00:51:33;5.37;;;4.40;;
5791;SDS011;2922;53.482;10.006;2023-07-28T00:54:02;5.83;;;4.40;;
5791;SDS011;2922;53.482;10.006;2023-07-28T00:56:29;7.03;;;4.30;;
5791;SDS011;2922;53.482;10.006;2023-07-28T00:58:54;5.20;;;4.70;;
5791;SDS011;2922;53.482;10.006;2023-07-28T01:01:20;4.50;;;3.63;;
5791;SDS011;2922;53.482;10.006;2023-07-28T01:03:46;4.67;;;4.17;;
5791;SDS011;2922;53.482;10.006;2023-07-28T01:06:20;4.90;;;3.50;;
5791;SDS011;2922;53.482;10.006;2023-07-28T01:09:00;4.57;;;4.00;;
5791;SDS011;2922;53.482;10.006;2023-07-28T01:11:28;3.90;;;3.50;;
5791;SDS011;2922;53.482;10.006;2023-07-28T01:13:54;6.13;;;3.90;;
5791;SDS011;2922;53.482;10.006;2023-07-28T01:16:20;4.63;;;3.90;;
5791;SDS011;2922;53.482;10.006;2023-07-28T01:18:46;5.00;;;4.13;;
5791;SDS011;2922;53.482;10.006;2023-07-28T01:21:14;4.57;;;3.73;;
5791;SDS011;2922;53.482;10.006;2023-07-28T01:24:14;4.77;;;3.80;;
5791;SDS011;2922;53.482;10.006;2023-07-28T01:26:45;6.40;;;3.80;;
5791;SDS011;2922;53.482;10.006;2023-07-28T01:29:12;4.47;;;3.93;;
5791;SDS011;2922;53.482;10.006;2023-07-28T01:31:40;4.50;;;4.10;;
5791;SDS011;2922;53.482;10.006;2023-07-28T01:34:06;9.13;;;3.93;;
5791;SDS011;2922;53.482;10.006;2023-07-28T01:36:32;3.80;;;3.40;;
5791;SDS011;2922;53.482;10.006;2023-07-28T01:38:57;4.27;;;3.50;;
5791;SDS011;2922;53.482;10.006;2023-07-28T01:41:23;6.57;;;4.07;;
5791;SDS011;2922;53.482;10.006;2023-07-28T01:43:48;4.40;;;3.37;;
5791;SDS011;2922;53.482;10.006;2023-07-28T01:46:14;4.70;;;3.93;;
5791;SDS011;2922;53.482;10.006;2023-07-28T01:48:40;5.33;;;4.17;;
5791;SDS011;2922;53.482;10.006;2023-07-28T01:51:05;6.27;;;3.87;;
5791;SDS011;2922;53.482;10.006;2023-07-28T01:53:31;6.60;;;3.70;;
5791;SDS011;2922;53.482;10.006;2023-07-28T01:55:56;4.60;;;3.40;;
5791;SDS011;2922;53.482;10.006;2023-07-28T01:58:22;5.70;;;3.40;;
5791;SDS011;2922;53.482;10.006;2023-07-28T02:00:48;4.97;;;3.33;;
5791;SDS011;2922;53.482;10.006;2023-07-28T02:03:13;4.23;;;3.27;;
5791;SDS011;2922;53.482;10.006;2023-07-28T02:05:39;3.40;;;3.10;;
5791;SDS011;2922;53.482;10.006;2023-07-28T02:08:04;3.70;;;3.03;;
5791;SDS011;2922;53.482;10.006;2023-07-28T02:10:30;5.30;;;3.60;;
5791;SDS011;2922;53.482;10.006;2023-07-28T02:12:55;4.17;;;3.60;;
5791;SDS011;2922;53.482;10.006;2023-07-28T02:15:21;3.67;;;3.37;;
5791;SDS011;2922;53.482;10.006;2023-07-28T02:17:47;3.90;;;3.50;;
5791;SDS011;2922;53.482;10.006;2023-07-28T02:20:12;3.73;;;3.33;;
5791;SDS011;2922;53.482;10.006;2023-07-28T02:22:40;4.07;;;3.10;;
5791;SDS011;2922;53.482;10.006;2023-07-28T02:25:06;4.17;;;3.37;;
5791;SDS011;2922;53.482;10.006;2023-07-28T02:27:32;4.70;;;3.87;;
5791;SDS011;2922;53.482;10.006;2023-07-28T02:29:58;3.93;;;3.27;;
5791;SDS011;2922;53.482;10.006;2023-07-28T02:32:23;4.50;;;3.70;;
5791;SDS011;2922;53.482;10.006;2023-07-28T02:34:49;4.60;;;4.00;;
5791;SDS011;2922;53.482;10.006;2023-07-28T02:37:15;5.20;;;3.33;;
5791;SDS011;2922;53.482;10.006;2023-07-28T02:39:41;4.20;;;3.23;;
5791;SDS011;2922;53.482;10.006;2023-07-28T02:42:07;3.80;;;3.30;;
5791;SDS011;2922;53.482;10.006;2023-07-28T02:44:32;4.33;;;3.20;;
5791;SDS011;2922;53.482;10.006;2023-07-28T02:46:58;5.07;;;3.70;;
5791;SDS011;2922;53.482;10.006;2023-07-28T02:49:23;5.30;;;3.37;;
5791;SDS011;2922;53.482;10.006;2023-07-28T02:51:49;3.30;;;3.00;;
5791;SDS011;2922;53.482;10.006;2023-07-28T02:54:15;4.83;;;3.57;;
5791;SDS011;2922;53.482;10.006;2023-07-28T02:56:40;4.00;;;3.60;;
5791;SDS011;2922;53.482;10.006;2023-07-28T02:59:06;4.40;;;3.70;;
5791;SDS011;2922;53.482;10.006;2023-07-28T03:01:31;5.10;;;3.00;;
5791;SDS011;2922;53.482;10.006;2023-07-28T03:03:58;5.40;;;3.37;;
5791;SDS011;2922;53.482;10.006;2023-07-28T03:06:25;3.90;;;3.20;;
5791;SDS011;2922;53.482;10.006;2023-07-28T03:08:50;4.80;;;3.70;;
5791;SDS011;2922;53.482;10.006;2023-07-28T03:11:16;5.00;;;3.77;;
5791;SDS011;2922;53.482;10.006;2023-07-28T03:13:41;4.73;;;3.57;;
5791;SDS011;2922;53.482;10.006;2023-07-28T03:16:07;5.97;;;4.07;;
5791;SDS011;2922;53.482;10.006;2023-07-28T03:18:32;4.70;;;3.90;;
5791;SDS011;2922;53.482;10.006;2023-07-28T03:20:58;5.33;;;3.80;;
5791;SDS011;2922;53.482;10.006;2023-07-28T03:23:23;4.83;;;2.90;;
5791;SDS011;2922;53.482;10.006;2023-07-28T03:25:49;3.53;;;3.17;;
5791;SDS011;2922;53.482;10.006;2023-07-28T03:28:14;2.60;;;2.20;;
5791;SDS011;2922;53.482;10.006;2023-07-28T03:30:40;3.50;;;2.20;;
5791;SDS011;2922;53.482;10.006;2023-07-28T03:33:06;2.50;;;2.30;;
5791;SDS011;2922;53.482;10.006;2023-07-28T03:35:31;2.43;;;2.23;;
5791;SDS011;2922;53.482;10.006;2023-07-28T03:37:57;1.73;;;1.60;;
5791;SDS011;2922;53.482;10.006;2023-07-28T03:40:22;1.90;;;1.70;;
5791;SDS011;2922;53.482;10.006;2023-07-28T03:42:48;2.00;;;1.50;;
5791;SDS011;2922;53.482;10.006;2023-07-28T03:45:13;2.50;;;1.93;;
5791;SDS011;2922;53.482;10.006;2023-07-28T03:47:39;2.60;;;2.40;;
5791;SDS011;2922;53.482;10.006;2023-07-28T03:50:05;2.37;;;2.17;;
5791;SDS011;2922;53.482;10.006;2023-07-28T03:52:31;3.17;;;2.60;;
5791;SDS011;2922;53.482;10.006;2023-07-28T03:54:56;3.43;;;2.70;;
5791;SDS011;2922;53.482;10.006;2023-07-28T03:57:22;3.83;;;3.20;;
5791;SDS011;2922;53.482;10.006;2023-07-28T03:59:47;3.10;;;2.50;;
5791;SDS011;2922;53.482;10.006;2023-07-28T04:02:13;2.90;;;2.70;;
5791;SDS011;2922;53.482;10.006;2023-07-28T04:04:38;3.10;;;2.80;;
5791;SDS011;2922;53.482;10.006;2023-07-28T04:07:04;5.27;;;2.70;;
5791;SDS011;2922;53.482;10.006;2023-07-28T04:09:30;3.73;;;3.00;;
5791;SDS011;2922;53.482;10.006;2023-07-28T04:11:55;3.07;;;2.73;;
5791;SDS011;2922;53.482;10.006;2023-07-28T04:14:21;4.70;;;2.70;;
5791;SDS011;2922;53.482;10.006;2023-07-28T04:16:46;4.27;;;2.53;;
5791;SDS011;2922;53.482;10.006;2023-07-28T04:19:12;3.33;;;3.03;;
5791;SDS011;2922;53.482;10.006;2023-07-28T04:21:38;3.57;;;2.57;;
5791;SDS011;2922;53.482;10.006;2023-07-28T04:24:05;3.50;;;2.93;;
5791;SDS011;2922;53.482;10.006;2023-07-28T04:26:32;5.23;;;3.03;;
5791;SDS011;2922;53.482;10.006;2023-07-28T04:28:57;4.03;;;3.10;;
5791;SDS011;2922;53.482;10.006;2023-07-28T04:31:23;3.00;;;2.70;;
5791;SDS011;2922;53.482;10.006;2023-07-28T04:33:48;3.53;;;3.23;;
5791;SDS011;2922;53.482;10.006;2023-07-28T04:36:14;3.80;;;3.00;;
5791;SDS011;2922;53.482;10.006;2023-07-28T04:38:40;3.83;;;2.93;;
5791;SDS011;2922;53.482;10.006;2023-07-28T04:41:05;3.70;;;3.00;;
5791;SDS011;2922;53.482;10.006;2023-07-28T04:43:31;5.17;;;3.30;;
5791;SDS011;2922;53.482;10.006;2023-07-28T04:45:56;3.37;;;3.07;;
5791;SDS011;2922;53.482;10.006;2023-07-28T04:48:22;3.57;;;3.10;;
5791;SDS011;2922;53.482;10.006;2023-07-28T04:50:47;4.70;;;3.20;;
5791;SDS011;2922;53.482;10.006;2023-07-28T04:53:14;2.90;;;2.70;;
5791;SDS011;2922;53.482;10.006;2023-07-28T04:55:39;3.50;;;3.20;;
5791;SDS011;2922;53.482;10.006;2023-07-28T04:58:05;4.90;;;3.13;;
5791;SDS011;2922;53.482;10.006;2023-07-28T05:00:31;3.50;;;3.00;;
5791;SDS011;2922;53.482;10.006;2023-07-28T05:02:56;3.67;;;3.03;;
5791;SDS011;2922;53.482;10.006;2023-07-28T05:05:22;5.20;;;3.30;;
5791;SDS011;2922;53.482;10.006;2023-07-28T05:07:48;3.97;;;2.97;;
5791;SDS011;2922;53.482;10.006;2023-07-28T05:10:13;4.70;;;3.53;;
5791;SDS011;2922;53.482;10.006;2023-07-28T05:12:39;5.27;;;3.13;;
5791;SDS011;2922;53.482;10.006;2023-07-28T05:15:05;5.60;;;3.67;;
5791;SDS011;2922;53.482;10.006;2023-07-28T05:17:31;5.50;;;3.80;;
5791;SDS011;2922;53.482;10.006;2023-07-28T05:19:56;4.30;;;3.50;;
5791;SDS011;2922;53.482;10.006;2023-07-28T05:22:22;4.67;;;4.17;;
5791;SDS011;2922;53.482;10.006;2023-07-28T05:24:47;5.17;;;3.73;;
5791;SDS011;2922;53.482;10.006;2023-07-28T05:27:13;4.80;;;4.20;;
5791;SDS011;2922;53.482;10.006;2023-07-28T05:29:38;4.60;;;4.03;;
5791;SDS011;2922;53.482;10.006;2023-07-28T05:32:04;4.80;;;3.90;;
5791;SDS011;2922;53.482;10.006;2023-07-28T05:34:31;4.70;;;3.40;;
5791;SDS011;2922;53.482;10.006;2023-07-28T05:36:56;5.60;;;4.07;;
5791;SDS011;2922;53.482;10.006;2023-07-28T05:39:22;7.20;;;3.60;;
5791;SDS011;2922;53.482;10.006;2023-07-28T05:41:47;5.13;;;3.63;;
5791;SDS011;2922;53.482;10.006;2023-07-28T05:44:13;8.80;;;3.77;;
5791;SDS011;2922;53.482;10.006;2023-07-28T05:46:39;6.00;;;4.80;;
5791;SDS011;2922;53.482;10.006;2023-07-28T05:49:04;6.33;;;3.57;;
5791;SDS011;2922;53.482;10.006;2023-07-28T05:51:30;4.53;;;3.73;;
5791;SDS011;2922;53.482;10.006;2023-07-28T05:53:56;5.33;;;3.70;;
5791;SDS011;2922;53.482;10.006;2023-07-28T05:56:22;4.67;;;4.17;;
5791;SDS011;2922;53.482;10.006;2023-07-28T05:58:48;5.20;;;4.57;;
5791;SDS011;2922;53.482;10.006;2023-07-28T06:01:14;7.77;;;4.47;;
5791;SDS011;2922;53.482;10.006;2023-07-28T06:03:39;4.77;;;4.23;;
5791;SDS011;2922;53.482;10.006;2023-07-28T06:06:05;4.30;;;3.90;;
5791;SDS011;2922;53.482;10.006;2023-07-28T06:08:30;4.47;;;4.07;;
5791;SDS011;2922;53.482;10.006;2023-07-28T06:10:56;5.00;;;3.87;;
5791;SDS011;2922;53.482;10.006;2023-07-28T06:13:22;6.20;;;3.43;;
5791;SDS011;2922;53.482;10.006;2023-07-28T06:15:47;4.30;;;3.90;;
5791;SDS011;2922;53.482;10.006;2023-07-28T06:18:13;4.53;;;4.13;;
5791;SDS011;2922;53.482;10.006;2023-07-28T06:20:42;5.10;;;4.10;;
5791;SDS011;2922;53.482;10.006;2023-07-28T06:23:08;7.43;;;5.40;;
5791;SDS011;2922;53.482;10.006;2023-07-28T06:25:34;6.20;;;4.20;;
5791;SDS011;2922;53.482;10.006;2023-07-28T06:28:00;7.13;;;5.07;;
5791;SDS011;2922;53.482;10.006;2023-07-28T06:30:26;6.30;;;5.20;;
5791;SDS011;2922;53.482;10.006;2023-07-28T06:32:51;5.80;;;4.50;;
5791;SDS011;2922;53.482;10.006;2023-07-28T06:35:17;10.60;;;5.80;;
5791;SDS011;2922;53.482;10.006;2023-07-28T06:37:42;5.47;;;4.47;;
5791;SDS011;2922;53.482;10.006;2023-07-28T06:40:08;5.97;;;5.37;;
5791;SDS011;2922;53.482;10.006;2023-07-28T06:42:35;7.07;;;5.17;;
5791;SDS011;2922;53.482;10.006;2023-07-28T06:45:01;6.70;;;5.50;;
5791;SDS011;2922;53.482;10.006;2023-07-28T06:47:30;6.20;;;5.60;;
5791;SDS011;2922;53.482;10.006;2023-07-28T06:49:56;7.33;;;5.70;;
5791;SDS011;2922;53.482;10.006;2023-07-28T06:52:21;8.90;;;6.30;;
5791;SDS011;2922;53.482;10.006;2023-07-28T06:54:47;6.23;;;5.63;;
5791;SDS011;2922;53.482;10.006;2023-07-28T06:57:14;6.40;;;5.80;;
5791;SDS011;2922;53.482;10.006;2023-07-28T06:59:40;6.20;;;5.17;;
5791;SDS011;2922;53.482;10.006;2023-07-28T07:02:06;6.20;;;5.33;;
5791;SDS011;2922;53.482;10.006;2023-07-28T07:04:32;9.53;;;5.80;;
5791;SDS011;2922;53.482;10.006;2023-07-28T07:06:57;5.83;;;4.87;;
5791;SDS011;2922;53.482;10.006;2023-07-28T07:09:23;5.73;;;5.20;;
5791;SDS011;2922;53.482;10.006;2023-07-28T07:11:49;5.30;;;4.80;;
5791;SDS011;2922;53.482;10.006;2023-07-28T07:14:15;6.57;;;5.03;;
5791;SDS011;2922;53.482;10.006;2023-07-28T07:16:41;6.77;;;5.00;;
5791;SDS011;2922;53.482;10.006;2023-07-28T07:19:07;11.10;;;5.50;;
5791;SDS011;2922;53.482;10.006;2023-07-28T07:21:33;7.40;;;4.70;;
5791;SDS011;2922;53.482;10.006;2023-07-28T07:23:59;5.20;;;4.47;;
5791;SDS011;2922;53.482;10.006;2023-07-28T07:26:25;5.90;;;5.30;;
5791;SDS011;2922;53.482;10.006;2023-07-28T07:28:52;8.03;;;5.40;;
5791;SDS011;2922;53.482;10.006;2023-07-28T07:31:18;7.73;;;4.90;;
5791;SDS011;2922;53.482;10.006;2023-07-28T07:33:44;6.73;;;5.23;;
5791;SDS011;2922;53.482;10.006;2023-07-28T07:36:13;5.10;;;4.60;;
5791;SDS011;2922;53.482;10.006;2023-07-28T07:38:42;7.20;;;4.97;;
5791;SDS011;2922;53.482;10.006;2023-07-28T07:41:11;5.80;;;4.97;;
5791;SDS011;2922;53.482;10.006;2023-07-28T07:43:37;6.20;;;5.57;;
5791;SDS011;2922;53.482;10.006;2023-07-28T07:46:03;7.37;;;5.27;;
5791;SDS011;2922;53.482;10.006;2023-07-28T07:48:29;5.83;;;5.23;;
5791;SDS011;2922;53.482;10.006;2023-07-28T07:50:55;5.40;;;4.17;;
5791;SDS011;2922;53.482;10.006;2023-07-28T07:53:21;6.40;;;4.97;;
5791;SDS011;2922;53.482;10.006;2023-07-28T07:55:46;7.00;;;5.07;;
5791;SDS011;2922;53.482;10.006;2023-07-28T07:58:12;7.50;;;4.97;;
5791;SDS011;2922;53.482;10.006;2023-07-28T08:00:38;6.37;;;5.43;;
5791;SDS011;2922;53.482;10.006;2023-07-28T08:03:04;7.47;;;6.23;;
5791;SDS011;2922;53.482;10.006;2023-07-28T08:05:30;9.10;;;7.00;;
5791;SDS011;2922;53.482;10.006;2023-07-28T08:07:56;7.77;;;6.13;;
5791;SDS011;2922;53.482;10.006;2023-07-28T08:10:22;7.07;;;6.00;;
5791;SDS011;2922;53.482;10.006;2023-07-28T08:12:48;13.27;;;6.47;;
5791;SDS011;2922;53.482;10.006;2023-07-28T08:15:14;6.20;;;5.60;;
5791;SDS011;2922;53.482;10.006;2023-07-28T08:17:39;6.60;;;6.00;;
5791;SDS011;2922;53.482;10.006;2023-07-28T08:20:06;10.57;;;7.27;;
5791;SDS011;2922;53.482;10.006;2023-07-28T08:22:32;6.20;;;5.60;;
5791;SDS011;2922;53.482;10.006;2023-07-28T08:24:58;7.57;;;6.67;;
5791;SDS011;2922;53.482;10.006;2023-07-28T08:27:23;8.80;;;6.80;;
5791;SDS011;2922;53.482;10.006;2023-07-28T08:29:49;10.00;;;6.90;;
5791;SDS011;2922;53.482;10.006;2023-07-28T08:32:15;6.80;;;6.10;;
5791;SDS011;2922;53.482;10.006;2023-07-28T08:34:40;5.87;;;5.33;;
5791;SDS011;2922;53.482;10.006;2023-07-28T08:37:06;5.50;;;5.00;;
5791;SDS011;2922;53.482;10.006;2023-07-28T08:39:33;6.73;;;6.07;;
5791;SDS011;2922;53.482;10.006;2023-07-28T08:41:59;5.70;;;5.20;;
5791;SDS011;2922;53.482;10.006;2023-07-28T08:44:26;6.00;;;5.33;;
5791;SDS011;2922;53.482;10.006;2023-07-28T08:46:54;5.27;;;4.77;;
5791;SDS011;2922;53.482;10.006;2023-07-28T08:49:20;7.47;;;5.50;;
5791;SDS011;2922;53.482;10.006;2023-07-28T08:51:49;8.17;;;5.50;;
5791;SDS011;2922;53.482;10.006;2023-07-28T08:54:15;5.23;;;4.73;;
5791;SDS011;2922;53.482;10.006;2023-07-28T08:56:44;8.57;;;5.80;;
5791;SDS011;2922;53.482;10.006;2023-07-28T08:59:10;10.30;;;5.43;;
5791;SDS011;2922;53.482;10.006;2023-07-28T09:01:39;8.87;;;5.57;;
5791;SDS011;2922;53.482;10.006;2023-07-28T09:04:09;6.37;;;5.67;;
5791;SDS011;2922;53.482;10.006;2023-07-28T09:06:36;6.13;;;5.50;;
5791;SDS011;2922;53.482;10.006;2023-07-28T09:09:01;5.30;;;4.80;;
5791;SDS011;2922;53.482;10.006;2023-07-28T09:11:30;6.03;;;5.10;;
5791;SDS011;2922;53.482;10.006;2023-07-28T09:13:56;6.23;;;5.57;;
5791;SDS011;2922;53.482;10.006;2023-07-28T09:16:24;7.70;;;6.00;;
5791;SDS011;2922;53.482;10.006;2023-07-28T09:18:50;9.73;;;6.70;;
5791;SDS011;2922;53.482;10.006;2023-07-28T09:21:16;10.53;;;6.20;;
5791;SDS011;2922;53.482;10.006;2023-07-28T09:23:43;7.93;;;6.57;;
5791;SDS011;2922;53.482;10.006;2023-07-28T09:26:10;7.50;;;5.67;;
5791;SDS011;2922;53.482;10.006;2023-07-28T09:28:37;7.37;;;5.30;;
5791;SDS011;2922;53.482;10.006;2023-07-28T09:31:06;7.40;;;5.90;;
5791;SDS011;2922;53.482;10.006;2023-07-28T09:33:33;7.07;;;5.63;;
5791;SDS011;2922;53.482;10.006;2023-07-28T09:36:10;7.20;;;5.63;;
5791;SDS011;2922;53.482;10.006;2023-07-28T09:38:37;7.83;;;6.07;;
5791;SDS011;2922;53.482;10.006;2023-07-28T09:41:05;13.57;;;7.07;;
5791;SDS011;2922;53.482;10.006;2023-07-28T09:43:34;6.10;;;5.13;;
5791;SDS011;2922;53.482;10.006;2023-07-28T09:46:02;5.87;;;4.80;;
5791;SDS011;2922;53.482;10.006;2023-07-28T09:48:29;4.80;;;4.27;;
5791;SDS011;2922;53.482;10.006;2023-07-28T09:50:58;5.30;;;4.80;;
5791;SDS011;2922;53.482;10.006;2023-07-28T09:53:30;5.57;;;4.90;;
5791;SDS011;2922;53.482;10.006;2023-07-28T09:56:00;5.87;;;4.33;;
5791;SDS011;2922;53.482;10.006;2023-07-28T09:58:27;5.03;;;4.63;;
5791;SDS011;2922;53.482;10.006;2023-07-28T10:00:58;4.87;;;4.23;;
5791;SDS011;2922;53.482;10.006;2023-07-28T10:03:25;5.70;;;4.20;;
5791;SDS011;2922;53.482;10.006;2023-07-28T10:05:51;4.23;;;3.70;;
5791;SDS011;2922;53.482;10.006;2023-07-28T10:08:17;4.20;;;3.80;;
5791;SDS011;2922;53.482;10.006;2023-07-28T10:10:44;10.67;;;4.00;;
5791;SDS011;2922;53.482;10.006;2023-07-28T10:13:19;4.20;;;3.80;;
5791;SDS011;2922;53.482;10.006;2023-07-28T10:15:46;4.40;;;4.00;;
5791;SDS011;2922;53.482;10.006;2023-07-28T10:18:13;5.80;;;3.60;;
5791;SDS011;2922;53.482;10.006;2023-07-28T10:20:40;4.67;;;3.83;;
5791;SDS011;2922;53.482;10.006;2023-07-28T10:23:19;5.93;;;4.30;;
5791;SDS011;2922;53.482;10.006;2023-07-28T10:25:46;4.13;;;3.73;;
5791;SDS011;2922;53.482;10.006;2023-07-28T10:28:30;6.10;;;4.10;;
5791;SDS011;2922;53.482;10.006;2023-07-28T10:31:00;5.87;;;4.53;;
5791;SDS011;2922;53.482;10.006;2023-07-28T10:33:30;4.63;;;3.90;;
5791;SDS011;2922;53.482;10.006;2023-07-28T10:36:10;4.80;;;3.73;;
5791;SDS011;2922;53.482;10.006;2023-07-28T10:38:40;4.97;;;4.23;;
5791;SDS011;2922;53.482;10.006;2023-07-28T10:41:12;9.33;;;4.03;;
5791;SDS011;2922;53.482;10.006;2023-07-28T10:43:42;5.63;;;3.27;;
5791;SDS011;2922;53.482;10.006;2023-07-28T10:46:10;4.53;;;4.13;;
5791;SDS011;2922;53.482;10.006;2023-07-28T10:48:39;5.93;;;3.70;;
5791;SDS011;2922;53.482;10.006;2023-07-28T10:51:11;4.00;;;3.30;;
5791;SDS011;2922;53.482;10.006;2023-07-28T10:53:37;3.87;;;3.47;;
5791;SDS011;2922;53.482;10.006;2023-07-28T10:56:03;4.90;;;2.97;;
5791;SDS011;2922;53.482;10.006;2023-07-28T10:58:32;5.63;;;3.43;;
5791;SDS011;2922;53.482;10.006;2023-07-28T11:01:00;3.47;;;3.10;;
5791;SDS011;2922;53.482;10.006;2023-07-28T11:03:27;4.00;;;3.20;;
5791;SDS011;2922;53.482;10.006;2023-07-28T11:05:53;3.20;;;2.57;;
5791;SDS011;2922;53.482;10.006;2023-07-28T11:08:21;10.50;;;3.53;;
5791;SDS011;2922;53.482;10.006;2023-07-28T11:10:47;4.80;;;3.50;;
5791;SDS011;2922;53.482;10.006;2023-07-28T11:13:13;6.47;;;2.47;;
5791;SDS011;2922;53.482;10.006;2023-07-28T11:15:38;3.63;;;3.03;;
5791;SDS011;2922;53.482;10.006;2023-07-28T11:18:04;4.00;;;2.90;;
5791;SDS011;2922;53.482;10.006;2023-07-28T11:20:30;3.17;;;2.73;;
5791;SDS011;2922;53.482;10.006;2023-07-28T11:22:57;5.57;;;3.43;;
5791;SDS011;2922;53.482;10.006;2023-07-28T11:25:24;6.87;;;3.30;;
5791;SDS011;2922;53.482;10.006;2023-07-28T11:27:52;2.90;;;2.47;;
5791;SDS011;2922;53.482;10.006;2023-07-28T11:30:18;2.47;;;2.20;;
5791;SDS011;2922;53.482;10.006;2023-07-28T11:32:46;3.10;;;2.60;;
5791;SDS011;2922;53.482;10.006;2023-07-28T11:35:13;2.43;;;1.80;;
5791;SDS011;2922;53.482;10.006;2023-07-28T11:37:41;2.83;;;2.30;;
5791;SDS011;2922;53.482;10.006;2023-07-28T11:40:08;5.70;;;1.90;;
5791;SDS011;2922;53.482;10.006;2023-07-28T11:42:39;1.87;;;1.77;;
5791;SDS011;2922;53.482;10.006;2023-07-28T11:45:06;3.37;;;2.13;;
5791;SDS011;2922;53.482;10.006;2023-07-28T11:47:32;3.30;;;2.27;;
5791;SDS011;2922;53.482;10.006;2023-07-28T11:49:58;2.40;;;2.20;;
5791;SDS011;2922;53.482;10.006;2023-07-28T11:52:31;6.90;;;2.40;;
5791;SDS011;2922;53.482;10.006;2023-07-28T11:54:58;4.73;;;1.90;;
5791;SDS011;2922;53.482;10.006;2023-07-28T11:57:26;2.10;;;1.90;;
5791;SDS011;2922;53.482;10.006;2023-07-28T11:59:52;3.00;;;2.30;;
5791;SDS011;2922;53.482;10.006;2023-07-28T12:02:24;3.17;;;2.60;;
5791;SDS011;2922;53.482;10.006;2023-07-28T12:04:54;2.43;;;1.60;;
5791;SDS011;2922;53.482;10.006;2023-07-28T12:07:28;2.53;;;2.07;;
5791;SDS011;2922;53.482;10.006;2023-07-28T12:09:54;2.80;;;1.93;;
5791;SDS011;2922;53.482;10.006;2023-07-28T12:12:24;2.83;;;1.67;;
5791;SDS011;2922;53.482;10.006;2023-07-28T12:14:51;3.57;;;2.10;;
5791;SDS011;2922;53.482;10.006;2023-07-28T12:17:18;4.30;;;2.07;;
5791;SDS011;2922;53.482;10.006;2023-07-28T12:22:37;1.60;;;1.50;;
5791;SDS011;2922;53.482;10.006;2023-07-28T12:25:04;1.50;;;1.40;;
5791;SDS011;2922;53.482;10.006;2023-07-28T12:27:30;1.33;;;1.23;;
5791;SDS011;2922;53.482;10.006;2023-07-28T12:29:56;3.37;;;1.47;;
5791;SDS011;2922;53.482;10.006;2023-07-28T12:32:22;1.30;;;1.10;;
5791;SDS011;2922;53.482;10.006;2023-07-28T12:34:51;2.47;;;1.17;;
5791;SDS011;2922;53.482;10.006;2023-07-28T12:37:17;2.87;;;1.40;;
5791;SDS011;2922;53.482;10.006;2023-07-28T12:39:43;1.30;;;1.20;;
5791;SDS011;2922;53.482;10.006;2023-07-28T12:42:09;1.23;;;1.10;;
5791;SDS011;2922;53.482;10.006;2023-07-28T12:44:36;1.40;;;1.20;;
5791;SDS011;2922;53.482;10.006;2023-07-28T12:47:03;1.87;;;1.20;;
5791;SDS011;2922;53.482;10.006;2023-07-28T12:49:29;1.40;;;1.30;;
5791;SDS011;2922;53.482;10.006;2023-07-28T12:51:56;1.33;;;1.23;;
5791;SDS011;2922;53.482;10.006;2023-07-28T12:54:23;1.77;;;1.40;;
5791;SDS011;2922;53.482;10.006;2023-07-28T12:56:49;7.33;;;1.53;;
5791;SDS011;2922;53.482;10.006;2023-07-28T12:59:16;6.43;;;1.50;;
5791;SDS011;2922;53.482;10.006;2023-07-28T13:01:41;3.50;;;1.23;;
5791;SDS011;2922;53.482;10.006;2023-07-28T13:04:07;1.40;;;1.30;;
5791;SDS011;2922;53.482;10.006;2023-07-28T13:06:33;1.47;;;1.30;;
5791;SDS011;2922;53.482;10.006;2023-07-28T13:08:59;1.30;;;1.20;;
5791;SDS011;2922;53.482;10.006;2023-07-28T13:11:24;1.90;;;1.40;;
5791;SDS011;2922;53.482;10.006;2023-07-28T13:13:50;1.80;;;1.53;;
5791;SDS011;2922;53.482;10.006;2023-07-28T13:16:16;1.60;;;1.50;;
5791;SDS011;2922;53.482;10.006;2023-07-28T13:18:44;2.77;;;1.63;;
5791;SDS011;2922;53.482;10.006;2023-07-28T13:21:10;1.63;;;1.53;;
5791;SDS011;2922;53.482;10.006;2023-07-28T13:23:36;1.63;;;1.53;;
5791;SDS011;2922;53.482;10.006;2023-07-28T13:26:02;2.20;;;2.00;;
5791;SDS011;2922;53.482;10.006;2023-07-28T13:28:31;3.20;;;1.90;;
5791;SDS011;2922;53.482;10.006;2023-07-28T13:30:57;2.00;;;1.77;;
5791;SDS011;2922;53.482;10.006;2023-07-28T13:33:23;3.30;;;2.30;;
5791;SDS011;2922;53.482;10.006;2023-07-28T13:35:48;2.50;;;2.10;;
5791;SDS011;2922;53.482;10.006;2023-07-28T13:38:14;4.80;;;2.40;;
5791;SDS011;2922;53.482;10.006;2023-07-28T13:40:39;2.50;;;2.30;;
5791;SDS011;2922;53.482;10.006;2023-07-28T13:43:05;2.50;;;2.17;;
5791;SDS011;2922;53.482;10.006;2023-07-28T13:45:31;4.33;;;2.30;;
5791;SDS011;2922;53.482;10.006;2023-07-28T13:47:56;3.20;;;1.80;;
5791;SDS011;2922;53.482;10.006;2023-07-28T13:50:22;3.90;;;2.10;;
5791;SDS011;2922;53.482;10.006;2023-07-28T13:52:47;2.87;;;1.87;;
5791;SDS011;2922;53.482;10.006;2023-07-28T13:55:13;1.80;;;1.70;;
5791;SDS011;2922;53.482;10.006;2023-07-28T13:57:39;2.87;;;2.07;;
5791;SDS011;2922;53.482;10.006;2023-07-28T14:00:05;3.20;;;1.97;;
5791;SDS011;2922;53.482;10.006;2023-07-28T14:02:34;4.57;;;2.00;;
5791;SDS011;2922;53.482;10.006;2023-07-28T14:05:03;6.23;;;2.10;;
5791;SDS011;2922;53.482;10.006;2023-07-28T14:07:29;2.67;;;2.03;;
5791;SDS011;2922;53.482;10.006;2023-07-28T14:09:54;2.30;;;1.83;;
5791;SDS011;2922;53.482;10.006;2023-07-28T14:12:20;2.00;;;1.73;;
5791;SDS011;2922;53.482;10.006;2023-07-28T14:14:45;2.17;;;1.80;;
5791;SDS011;2922;53.482;10.006;2023-07-28T14:17:11;2.13;;;1.40;;
5791;SDS011;2922;53.482;10.006;2023-07-28T14:19:40;1.70;;;1.60;;
5791;SDS011;2922;53.482;10.006;2023-07-28T14:22:05;1.80;;;1.63;;
5791;SDS011;2922;53.482;10.006;2023-07-28T14:24:31;7.23;;;1.47;;
5791;SDS011;2922;53.482;10.006;2023-07-28T14:26:57;2.07;;;1.77;;
5791;SDS011;2922;53.482;10.006;2023-07-28T14:29:22;2.57;;;1.93;;
5791;SDS011;2922;53.482;10.006;2023-07-28T14:31:48;3.47;;;2.03;;
5791;SDS011;2922;53.482;10.006;2023-07-28T14:34:14;3.60;;;1.80;;
5791;SDS011;2922;53.482;10.006;2023-07-28T14:36:39;2.43;;;2.10;;
5791;SDS011;2922;53.482;10.006;2023-07-28T14:39:05;2.00;;;1.80;;
5791;SDS011;2922;53.482;10.006;2023-07-28T14:41:31;2.37;;;1.73;;
5791;SDS011;2922;53.482;10.006;2023-07-28T14:43:57;3.77;;;2.03;;
5791;SDS011;2922;53.482;10.006;2023-07-28T14:46:23;1.90;;;1.60;;
5791;SDS011;2922;53.482;10.006;2023-07-28T14:48:50;2.20;;;1.60;;
5791;SDS011;2922;53.482;10.006;2023-07-28T14:51:16;1.40;;;1.30;;
5791;SDS011;2922;53.482;10.006;2023-07-28T14:53:42;5.13;;;1.57;;
5791;SDS011;2922;53.482;10.006;2023-07-28T14:56:10;2.07;;;1.50;;
5791;SDS011;2922;53.482;10.006;2023-07-28T14:58:36;2.77;;;1.50;;